createdAt,value
2022-09-28T00:00:25.028Z,29.08
2022-09-28T00:03:29.630Z,28.15
2022-09-28T00:06:34.011Z,28.05
2022-09-28T00:09:38.417Z,29.13
2022-09-28T00:12:42.585Z,29.55
2022-09-28T00:15:46.859Z,30.83
2022-09-28T00:18:52.348Z,31.27
2022-09-28T00:21:57.034Z,33.10
2022-09-28T00:25:01.396Z,32.20
2022-09-28T00:28:07.371Z,33.17
2022-09-28T00:31:11.768Z,35.22
2022-09-28T00:34:16.882Z,35.53
2022-09-28T00:37:21.348Z,34.70
2022-09-28T00:40:25.680Z,36.42
2022-09-28T00:43:29.973Z,34.55
2022-09-28T00:46:36.229Z,35.08
2022-09-28T00:49:57.348Z,35.15
2022-09-28T00:53:16.036Z,37.28
2022-09-28T00:56:24.939Z,36.13
2022-09-28T00:59:31.367Z,37.00
2022-09-28T01:02:36.021Z,37.50
2022-09-28T01:05:41.440Z,37.53
2022-09-28T01:08:48.237Z,36.90
2022-09-28T01:11:52.703Z,34.60
2022-09-28T01:14:58.351Z,36.72
2022-09-28T01:18:17.422Z,36.15
2022-09-28T01:21:25.894Z,33.22
2022-09-28T01:24:46.459Z,33.97
2022-09-28T01:28:02.205Z,33.15
2022-09-28T01:31:15.912Z,36.78
2022-09-28T01:35:17.299Z,33.83
2022-09-28T01:38:34.490Z,33.80
2022-09-28T01:41:41.361Z,37.28
2022-09-28T01:44:49.974Z,36.83
2022-09-28T01:48:00.871Z,36.72
2022-09-28T01:51:13.883Z,38.78
2022-09-28T01:54:28.914Z,42.28
2022-09-28T01:58:07.558Z,43.33
2022-09-28T02:01:55.359Z,42.08
2022-09-28T02:05:35.373Z,45.03
2022-09-28T02:08:58.183Z,44.00
2022-09-28T02:12:12.306Z,43.40
2022-09-28T02:15:28.256Z,41.13
2022-09-28T02:18:33.624Z,40.63
2022-09-28T02:21:54.913Z,39.45
2022-09-28T02:25:47.110Z,39.92
2022-09-28T02:28:51.416Z,39.30
2022-09-28T02:31:55.958Z,37.88
2022-09-28T02:35:00.736Z,35.83
2022-09-28T02:38:05.218Z,35.42
2022-09-28T02:41:54.316Z,40.03
2022-09-28T02:45:30.173Z,39.20
2022-09-28T02:49:20.347Z,38.28
2022-09-28T02:52:50.741Z,38.47
2022-09-28T02:56:08.671Z,38.83
2022-09-28T03:00:03.254Z,38.90
2022-09-28T03:03:53.830Z,39.28
2022-09-28T03:07:23.812Z,39.47
2022-09-28T03:10:46.713Z,37.45
2022-09-28T03:13:52.935Z,39.72
2022-09-28T03:16:57.285Z,37.78
2022-09-28T03:20:02.594Z,36.55
2022-09-28T03:23:23.954Z,36.03
2022-09-28T03:26:29.184Z,39.03
2022-09-28T03:32:40.083Z,37.72
2022-09-28T03:35:50.602Z,37.60
2022-09-28T03:38:56.150Z,37.10
2022-09-28T03:42:01.359Z,36.75
2022-09-28T03:45:06.670Z,39.67
2022-09-28T03:48:11.197Z,38.42
2022-09-28T03:51:15.530Z,36.53
2022-09-28T03:54:20.058Z,38.53
2022-09-28T03:57:24.292Z,37.63
2022-09-28T04:00:28.858Z,38.70
2022-09-28T04:03:33.562Z,34.95
2022-09-28T04:06:39.480Z,36.05
2022-09-28T04:09:43.981Z,38.70
2022-09-28T04:12:49.785Z,39.45
2022-09-28T04:15:59.608Z,39.83
2022-09-28T04:19:04.556Z,39.85
2022-09-28T04:22:09.311Z,39.42
2022-09-28T04:25:13.668Z,40.45
2022-09-28T04:31:50.707Z,39.08
2022-09-28T04:34:54.833Z,41.65
2022-09-28T04:37:59.172Z,40.35
2022-09-28T04:41:03.939Z,40.65
2022-09-28T04:44:09.754Z,43.00
2022-09-28T04:47:14.298Z,45.67
2022-09-28T04:50:18.744Z,44.97
2022-09-28T04:53:25.583Z,42.35
2022-09-28T04:56:30.024Z,39.47
2022-09-28T04:59:34.273Z,41.63
2022-09-28T05:02:39.290Z,41.80
2022-09-28T05:05:47.694Z,43.22
2022-09-28T05:08:52.623Z,42.25
2022-09-28T05:11:57.004Z,46.35
2022-09-28T05:15:01.168Z,44.70
2022-09-28T05:21:30.616Z,40.53
2022-09-28T05:24:35.371Z,43.28
2022-09-28T05:27:40.026Z,45.03
2022-09-28T05:30:46.611Z,44.78
2022-09-28T05:33:51.626Z,46.05
2022-09-28T05:36:56.304Z,45.17
2022-09-28T05:40:00.934Z,46.40
2022-09-28T05:43:05.628Z,46.25
2022-09-28T05:46:09.979Z,50.08
2022-09-28T05:49:14.795Z,47.70
2022-09-28T05:52:20.029Z,46.78
2022-09-28T05:55:24.620Z,48.83
2022-09-28T05:58:29.087Z,46.63
2022-09-28T06:01:33.598Z,48.55
2022-09-28T06:04:38.164Z,51.45
2022-09-28T06:07:42.978Z,50.78
2022-09-28T06:10:47.553Z,51.80
2022-09-28T06:13:56.890Z,49.47
2022-09-28T06:17:02.323Z,48.45
2022-09-28T06:20:07.664Z,51.95
2022-09-28T06:23:17.977Z,53.65
2022-09-28T06:26:22.909Z,49.17
2022-09-28T06:29:27.566Z,50.95
2022-09-28T06:32:32.251Z,48.28
2022-09-28T06:35:36.621Z,49.85
2022-09-28T06:38:41.408Z,50.70
2022-09-28T06:41:45.755Z,49.03
2022-09-28T06:44:49.977Z,51.33
2022-09-28T06:47:59.874Z,49.50
2022-09-28T06:51:04.691Z,51.20
2022-09-28T06:54:09.896Z,52.97
2022-09-28T06:57:14.472Z,52.03
2022-09-28T07:00:19.210Z,50.80
2022-09-28T07:03:25.037Z,49.53
2022-09-28T07:06:31.548Z,52.67
2022-09-28T07:09:41.446Z,49.20
2022-09-28T07:12:48.512Z,50.53
2022-09-28T07:15:57.638Z,49.83
2022-09-28T07:19:02.057Z,49.20
2022-09-28T07:22:06.511Z,49.47
2022-09-28T07:25:11.070Z,50.55
2022-09-28T07:28:17.355Z,50.85
2022-09-28T07:31:25.361Z,52.55
2022-09-28T07:34:29.859Z,52.60
2022-09-28T07:37:36.423Z,50.75
2022-09-28T07:40:59.195Z,49.42
2022-09-28T07:44:06.801Z,49.75
2022-09-28T07:47:11.342Z,48.35
2022-09-28T07:50:15.969Z,47.35
2022-09-28T07:53:23.134Z,43.50
2022-09-28T07:56:27.975Z,42.17
2022-09-28T07:59:32.749Z,43.22
2022-09-28T08:02:38.131Z,45.58
2022-09-28T08:05:43.278Z,42.63
2022-09-28T08:08:48.092Z,40.13
2022-09-28T08:12:02.520Z,40.53
2022-09-28T08:15:11.441Z,39.00
2022-09-28T08:18:16.186Z,36.15
2022-09-28T08:21:41.834Z,36.08
2022-09-28T08:24:49.461Z,38.63
2022-09-28T08:27:57.484Z,37.30
2022-09-28T08:31:02.889Z,34.80
2022-09-28T08:34:08.224Z,34.78
2022-09-28T08:37:13.119Z,36.70
2022-09-28T08:40:24.892Z,34.53
2022-09-28T08:44:10.773Z,34.35
2022-09-28T08:47:53.204Z,34.38
2022-09-28T08:51:07.395Z,30.55
2022-09-28T08:54:37.398Z,30.92
2022-09-28T08:57:59.324Z,30.35
2022-09-28T09:01:16.795Z,29.23
2022-09-28T09:04:31.046Z,28.73
2022-09-28T09:07:47.565Z,29.45
2022-09-28T09:11:50.095Z,30.40
2022-09-28T09:15:29.112Z,30.70
2022-09-28T09:18:41.752Z,31.80
2022-09-28T09:22:09.978Z,30.70
2022-09-28T09:25:55.063Z,31.63
2022-09-28T09:29:17.967Z,32.30
2022-09-28T09:33:05.381Z,29.05
2022-09-28T09:36:42.478Z,29.75
2022-09-28T09:40:48.345Z,28.08
2022-09-28T09:44:55.071Z,30.63
2022-09-28T09:48:43.707Z,26.65
2022-09-28T09:52:09.351Z,25.88
2022-09-28T09:56:26.790Z,25.27
2022-09-28T09:59:42.052Z,22.90
2022-09-28T10:02:48.715Z,20.83
2022-09-28T10:06:06.769Z,19.65
2022-09-28T10:09:24.976Z,20.40
2022-09-28T10:12:31.144Z,18.48
2022-09-28T10:15:36.521Z,15.73
2022-09-28T10:18:41.274Z,14.95
2022-09-28T10:21:52.892Z,13.52
2022-09-28T10:24:59.313Z,16.90
2022-09-28T10:28:07.703Z,15.95
2022-09-28T10:31:46.081Z,15.38
2022-09-28T10:34:52.815Z,15.15
2022-09-28T10:38:07.415Z,15.35
2022-09-28T10:41:13.554Z,12.73
2022-09-28T10:44:20.603Z,9.95
2022-09-28T10:47:30.534Z,9.73
2022-09-28T10:50:35.104Z,6.85
2022-09-28T10:53:39.955Z,7.05
2022-09-28T10:56:46.513Z,7.82
2022-09-28T10:59:51.251Z,6.18
2022-09-28T11:02:55.882Z,4.68
2022-09-28T11:06:07.734Z,5.95
2022-09-28T11:09:32.067Z,6.47
2022-09-28T11:12:43.964Z,6.68
2022-09-28T11:15:48.458Z,5.50
2022-09-28T11:18:53.356Z,6.10
2022-09-28T11:21:57.659Z,6.22
2022-09-28T11:25:18.461Z,5.53
2022-09-28T11:28:32.689Z,5.50
2022-09-28T11:31:37.690Z,4.38
2022-09-28T11:34:59.220Z,4.40
2022-09-28T11:38:31.995Z,5.70
2022-09-28T11:41:52.385Z,5.68
2022-09-28T11:45:51.087Z,5.38
2022-09-28T11:49:07.350Z,4.93
2022-09-28T11:52:24.112Z,4.95
2022-09-28T11:55:54.377Z,4.90
2022-09-28T11:59:37.108Z,3.88
2022-09-28T12:03:08.088Z,3.25
2022-09-28T12:06:19.567Z,2.30
2022-09-28T12:09:43.481Z,2.90
2022-09-28T12:12:54.267Z,2.65
2022-09-28T12:17:00.883Z,3.10
2022-09-28T12:20:14.616Z,3.53
2022-09-28T12:23:27.393Z,3.17
2022-09-28T12:26:42.161Z,3.13
2022-09-28T12:29:53.412Z,3.22
2022-09-28T12:33:09.173Z,3.28
2022-09-28T12:36:35.833Z,2.95
2022-09-28T12:40:17.337Z,3.60
2022-09-28T12:44:03.971Z,2.70
2022-09-28T12:48:01.366Z,3.20
2022-09-28T12:51:18.733Z,3.28
2022-09-28T12:54:34.299Z,2.78
2022-09-28T12:58:26.243Z,2.53
2022-09-28T13:01:48.492Z,2.83
2022-09-28T13:05:16.824Z,2.25
2022-09-28T13:08:58.272Z,2.22
2022-09-28T13:12:34.216Z,2.50
2022-09-28T13:16:08.037Z,2.63
2022-09-28T13:19:40.583Z,2.65
2022-09-28T13:23:18.702Z,2.00
2022-09-28T13:26:44.008Z,2.70
2022-09-28T13:29:54.308Z,2.72
2022-09-28T13:33:05.840Z,2.30
2022-09-28T13:36:47.838Z,2.53
2022-09-28T13:39:59.664Z,2.75
2022-09-28T13:43:25.331Z,2.78
2022-09-28T13:47:12.986Z,1.88
2022-09-28T13:51:03.690Z,2.05
2022-09-28T13:54:24.357Z,2.65
2022-09-28T13:57:52.118Z,2.45
2022-09-28T14:01:10.470Z,2.53
2022-09-28T14:04:25.495Z,2.97
2022-09-28T14:07:35.843Z,3.47
2022-09-28T14:10:55.493Z,2.80
2022-09-28T14:14:08.733Z,3.15
2022-09-28T14:17:19.299Z,3.08
2022-09-28T14:20:27.389Z,2.20
2022-09-28T14:23:44.900Z,2.13
2022-09-28T14:27:13.394Z,2.03
2022-09-28T14:30:29.537Z,2.10
2022-09-28T14:33:35.160Z,2.10
2022-09-28T14:37:07.143Z,2.13
2022-09-28T14:41:01.043Z,1.80
2022-09-28T14:44:19.347Z,2.33
2022-09-28T14:48:03.258Z,1.65
2022-09-28T14:51:33.049Z,2.00
2022-09-28T14:54:52.872Z,1.98
2022-09-28T14:58:01.979Z,2.05
2022-09-28T15:01:20.763Z,1.92
2022-09-28T15:04:30.112Z,2.10
2022-09-28T15:07:57.250Z,2.55
2022-09-28T15:11:12.921Z,2.80
2022-09-28T15:14:21.388Z,2.72
2022-09-28T15:17:51.043Z,2.42
2022-09-28T15:20:56.278Z,2.63
2022-09-28T15:24:01.906Z,3.33
2022-09-28T15:27:19.103Z,10.20
2022-09-28T15:30:32.203Z,4.53
2022-09-28T15:33:59.710Z,4.03
2022-09-28T15:37:18.874Z,6.90
2022-09-28T15:40:41.601Z,6.20
2022-09-28T15:44:24.587Z,3.85
2022-09-28T15:47:40.802Z,3.72
2022-09-28T15:51:19.247Z,4.35
2022-09-28T15:54:44.187Z,3.80
2022-09-28T16:01:36.696Z,3.30
2022-09-28T16:08:02.095Z,3.80
2022-09-28T16:11:31.762Z,3.92
2022-09-28T16:14:36.516Z,3.85
2022-09-28T16:17:44.087Z,3.60
2022-09-28T16:20:56.312Z,3.53
2022-09-28T16:24:08.796Z,3.15
2022-09-28T16:27:42.256Z,4.38
2022-09-28T16:31:10.110Z,4.38
2022-09-28T16:34:33.520Z,3.95
2022-09-28T16:37:42.761Z,3.60
2022-09-28T16:40:58.095Z,4.47
2022-09-28T16:44:06.811Z,5.03
2022-09-28T16:47:11.664Z,6.10
2022-09-28T16:50:43.198Z,5.82
2022-09-28T16:54:06.960Z,7.13
2022-09-28T16:57:14.909Z,6.35
2022-09-28T17:00:25.776Z,6.88
2022-09-28T17:03:36.348Z,6.68
2022-09-28T17:07:03.508Z,5.88
2022-09-28T17:11:02.618Z,4.53
2022-09-28T17:14:08.880Z,4.68
2022-09-28T17:17:17.211Z,4.38
2022-09-28T17:20:29.613Z,4.25
2022-09-28T17:23:39.847Z,4.85
2022-09-28T17:26:49.300Z,4.50
2022-09-28T17:29:59.184Z,4.10
2022-09-28T17:33:09.032Z,4.97
2022-09-28T17:36:19.707Z,5.45
2022-09-28T17:39:33.687Z,5.00
2022-09-28T17:43:00.526Z,6.25
2022-09-28T17:46:26.553Z,7.30
2022-09-28T17:49:40.150Z,8.00
2022-09-28T17:52:45.985Z,10.25
2022-09-28T17:55:51.691Z,9.85
2022-09-28T17:59:01.509Z,9.27
2022-09-28T18:02:27.635Z,9.40
2022-09-28T18:06:11.315Z,9.15
2022-09-28T18:09:26.387Z,8.23
2022-09-28T18:12:54.101Z,10.50
2022-09-28T18:16:36.608Z,11.32
2022-09-28T18:19:56.056Z,10.45
2022-09-28T18:23:33.876Z,9.00
2022-09-28T18:26:48.887Z,13.95
2022-09-28T18:30:00.265Z,15.32
2022-09-28T18:33:11.045Z,16.88
2022-09-28T18:36:22.917Z,16.95
2022-09-28T18:39:34.605Z,17.55
2022-09-28T18:51:09.516Z,15.27
2022-09-28T18:54:31.759Z,22.67
2022-09-28T19:02:27.546Z,14.68
2022-09-28T19:05:40.059Z,14.25
2022-09-28T19:08:57.070Z,15.35
2022-09-28T19:12:33.428Z,16.63
2022-09-28T19:15:46.214Z,15.77
2022-09-28T19:18:56.502Z,16.65
2022-09-28T19:22:16.557Z,16.48
2022-09-28T19:25:30.178Z,17.13
2022-09-28T19:29:32.929Z,17.95
2022-09-28T19:32:53.249Z,17.85
2022-09-28T19:36:14.366Z,20.17
2022-09-28T19:39:39.141Z,20.50
2022-09-28T19:42:56.212Z,19.67
2022-09-28T19:46:33.603Z,40.83
2022-09-28T19:49:51.787Z,22.58
2022-09-28T19:53:27.224Z,28.48
2022-09-28T19:56:45.939Z,26.08
2022-09-28T20:00:29.855Z,30.27
2022-09-28T20:04:36.622Z,35.83
2022-09-28T20:08:13.380Z,23.63
2022-09-28T20:12:00.352Z,23.00
2022-09-28T20:15:40.958Z,22.98
2022-09-28T20:19:28.581Z,22.08
2022-09-28T20:23:30.422Z,56.88
2022-09-28T20:32:21.545Z,30.75
2022-09-28T20:52:06.940Z,20.17
2022-09-28T20:57:00.697Z,21.30
2022-09-28T21:00:30.867Z,21.65
